Time;durP1;ratioP1;P1;durP2;ratioP2;P2;SDS_P1;SDS_P2;PMS_P1;PMS_P2;Temp;Humidity;BMP_temperature;BMP_pressure;BME280_temperature;BME280_humidity;BME280_pressure;Samples;Min_cycle;Max_cycle;Signal;HPM_P1;HPM_P2
2021/11/03 00:00:28;;;;;;;;;;;18.40;70.60;;;;;;4974236;28;19981;-46
2021/11/03 00:02:56;;;;;;;;;;;18.40;70.60;;;;;;4975989;28;19926;-45
2021/11/03 00:05:23;;;;;;;;;;;18.40;70.60;;;;;;4975652;28;19973;-46
2021/11/03 00:07:50;;;;;;;;;;;18.40;70.60;;;;;;4975361;28;20357;-45
2021/11/03 00:10:17;;;;;;;;;;;18.40;70.60;;;;;;4975574;28;19926;-51
2021/11/03 00:12:44;;;;;;;;;;;18.40;70.60;;;;;;4990449;28;19972;-50
2021/11/03 00:15:11;;;;;;;;;;;18.40;70.60;;;;;;4971025;28;19926;-52
2021/11/03 00:17:38;;;;;;;;;;;18.40;70.60;;;;;;4956157;28;19926;-52
2021/11/03 00:20:06;;;;;;;;;;;18.40;70.60;;;;;;4956105;28;19930;-52
2021/11/03 00:22:34;;;;;;;;;;;18.40;70.60;;;;;;4956002;28;19950;-52
2021/11/03 00:25:02;;;;;;;;;;;18.40;70.60;;;;;;4956245;28;19934;-47
2021/11/03 00:27:29;;;;;;;;;;;18.40;70.60;;;;;;4956067;28;20025;-45
2021/11/03 00:29:56;;;;;;;;;;;18.40;70.60;;;;;;4955854;28;19927;-49
2021/11/03 00:32:23;;;;;;;;;;;18.40;70.70;;;;;;4975417;28;19954;-45
2021/11/03 00:34:50;;;;;;;;;;;18.40;71.40;;;;;;4975128;28;19926;-44
2021/11/03 00:37:18;;;;;;;;;;;18.40;70.70;;;;;;4976292;28;20333;-45
2021/11/03 00:39:45;;;;;;;;;;;18.40;70.70;;;;;;4975141;28;19973;-45
2021/11/03 00:42:12;;;;;;;;;;;18.40;70.70;;;;;;4975429;28;19973;-45
2021/11/03 00:44:39;;;;;;;;;;;18.40;70.70;;;;;;4975402;28;19958;-48
2021/11/03 00:47:06;;;;;;;;;;;18.40;71.10;;;;;;4973562;28;20337;-52
2021/11/03 00:49:33;;;;;;;;;;;18.40;70.70;;;;;;4976132;28;20012;-49
2021/11/03 00:52:00;;;;;;;;;;;18.40;70.70;;;;;;4975015;28;20381;-52
2021/11/03 00:54:27;;;;;;;;;;;18.40;70.70;;;;;;4989373;28;19926;-49
2021/11/03 00:56:54;;;;;;;;;;;18.40;70.70;;;;;;4975279;28;20014;-45
2021/11/03 00:59:21;;;;;;;;;;;18.40;70.70;;;;;;4974938;28;20147;-45
2021/11/03 01:01:48;;;;;;;;;;;18.40;70.70;;;;;;4973283;28;19973;-46
2021/11/03 01:04:16;;;;;;;;;;;18.40;70.70;;;;;;4974918;28;20017;-49
2021/11/03 01:06:43;;;;;;;;;;;18.40;70.70;;;;;;4975190;28;19997;-47
2021/11/03 01:09:10;;;;;;;;;;;18.40;70.80;;;;;;4975122;28;19956;-44
2021/11/03 01:11:37;;;;;;;;;;;18.40;70.80;;;;;;4975697;28;20449;-47
2021/11/03 01:14:05;;;;;;;;;;;18.40;70.80;;;;;;4973638;28;20433;-48
2021/11/03 01:16:32;;;;;;;;;;;18.40;70.80;;;;;;4973114;28;19957;-45
2021/11/03 01:19:00;;;;;;;;;;;18.40;70.80;;;;;;4975065;28;19926;-48
2021/11/03 01:21:27;;;;;;;;;;;18.40;70.80;;;;;;4977750;28;19926;-47
2021/11/03 01:23:54;;;;;;;;;;;18.40;70.80;;;;;;4978772;28;19926;-51
2021/11/03 01:26:21;;;;;;;;;;;18.40;70.80;;;;;;4978554;28;19926;-51
2021/11/03 01:28:48;;;;;;;;;;;18.40;70.80;;;;;;4978831;28;19932;-51
2021/11/03 01:31:15;;;;;;;;;;;18.30;70.70;;;;;;4976861;28;19926;-51
2021/11/03 01:33:43;;;;;;;;;;;18.40;70.80;;;;;;4978739;28;19926;-50
2021/11/03 01:36:10;;;;;;;;;;;18.40;70.90;;;;;;4979435;28;19926;-46
2021/11/03 01:38:38;;;;;;;;;;;18.40;70.80;;;;;;4978345;28;19926;-46
2021/11/03 01:41:05;;;;;;;;;;;18.40;70.80;;;;;;4978298;28;19933;-49
2021/11/03 01:43:38;;;;;;;;;;;18.40;70.80;;;;;;4977387;28;19981;-47
2021/11/03 01:46:17;;;;;;;;;;;18.40;70.80;;;;;;4976597;28;19930;-44
2021/11/03 01:48:48;;;;;;;;;;;18.40;70.80;;;;;;4978444;28;20013;-46
2021/11/03 01:51:18;;;;;;;;;;;18.40;70.90;;;;;;4978120;28;19980;-44
2021/11/03 01:53:48;;;;;;;;;;;18.30;70.70;;;;;;4977736;28;19961;-44
2021/11/03 01:56:17;;;;;;;;;;;18.40;70.90;;;;;;4978224;28;20106;-45
2021/11/03 01:58:46;;;;;;;;;;;18.40;70.90;;;;;;4978273;28;19926;-44
2021/11/03 02:01:13;;;;;;;;;;;18.40;70.90;;;;;;4976666;28;19980;-45
2021/11/03 02:03:41;;;;;;;;;;;18.40;70.90;;;;;;4977897;28;20397;-44
2021/11/03 02:06:11;;;;;;;;;;;18.40;70.90;;;;;;4978136;28;19926;-44
2021/11/03 02:08:40;;;;;;;;;;;18.40;70.90;;;;;;4978162;28;19926;-44
2021/11/03 02:11:07;;;;;;;;;;;18.40;71.00;;;;;;4977748;28;19937;-44
2021/11/03 02:13:36;;;;;;;;;;;18.40;71.00;;;;;;4977662;28;20377;-44
2021/11/03 02:16:03;;;;;;;;;;;18.40;71.00;;;;;;4976727;28;19965;-46
2021/11/03 02:18:32;;;;;;;;;;;18.40;71.00;;;;;;4977500;28;19926;-45
2021/11/03 02:20:59;;;;;;;;;;;18.40;70.90;;;;;;4977897;28;19927;-44
2021/11/03 02:23:29;;;;;;;;;;;18.40;71.00;;;;;;4977691;28;20328;-44
2021/11/03 02:26:04;;;;;;;;;;;18.40;71.00;;;;;;4977807;28;20321;-44
2021/11/03 02:28:32;;;;;;;;;;;18.30;70.90;;;;;;4977777;28;19930;-44
2021/11/03 02:30:59;;;;;;;;;;;18.40;71.00;;;;;;4976855;28;20385;-45
2021/11/03 02:33:27;;;;;;;;;;;18.40;71.00;;;;;;4975943;28;19926;-44
2021/11/03 02:35:56;;;;;;;;;;;18.40;71.00;;;;;;4977258;28;19926;-45
2021/11/03 02:38:31;;;;;;;;;;;18.40;71.00;;;;;;4977567;28;19926;-45
2021/11/03 02:41:03;;;;;;;;;;;18.40;71.00;;;;;;4978097;28;19930;-44
2021/11/03 02:43:34;;;;;;;;;;;18.40;71.00;;;;;;4977258;28;20393;-44
2021/11/03 02:46:01;;;;;;;;;;;18.40;71.00;;;;;;4977130;28;20405;-44
2021/11/03 02:48:30;;;;;;;;;;;18.40;71.00;;;;;;4975823;28;20365;-44
2021/11/03 02:50:57;;;;;;;;;;;18.30;70.90;;;;;;4977067;28;19926;-45
2021/11/03 02:53:24;;;;;;;;;;;18.40;71.00;;;;;;4976790;28;19983;-45
2021/11/03 02:55:51;;;;;;;;;;;18.40;71.00;;;;;;4976916;28;19926;-50
2021/11/03 02:58:18;;;;;;;;;;;18.40;71.00;;;;;;4977230;28;19973;-44
2021/11/03 03:00:46;;;;;;;;;;;18.40;71.00;;;;;;4977196;28;19926;-45
2021/11/03 03:03:13;;;;;;;;;;;18.40;71.10;;;;;;4975508;28;19930;-45
2021/11/03 03:05:46;;;;;;;;;;;18.40;71.10;;;;;;4977594;28;19933;-45
2021/11/03 03:08:13;;;;;;;;;;;18.40;71.10;;;;;;4976756;28;20449;-45
2021/11/03 03:10:40;;;;;;;;;;;18.40;71.00;;;;;;4976684;28;19926;-45
2021/11/03 03:13:07;;;;;;;;;;;18.40;71.00;;;;;;4992401;28;19937;-44
2021/11/03 03:15:34;;;;;;;;;;;18.40;71.00;;;;;;4976540;28;19981;-45
2021/11/03 03:18:00;;;;;;;;;;;18.40;71.10;;;;;;4974642;28;20421;-46
2021/11/03 03:20:27;;;;;;;;;;;18.40;71.10;;;;;;4976793;28;20016;-44
2021/11/03 03:22:54;;;;;;;;;;;18.40;71.10;;;;;;4975404;28;20369;-44
2021/11/03 03:25:21;;;;;;;;;;;18.40;71.10;;;;;;4976703;28;20017;-44
2021/11/03 03:27:48;;;;;;;;;;;18.40;71.10;;;;;;4976367;28;20383;-45
2021/11/03 03:30:15;;;;;;;;;;;18.40;71.10;;;;;;4976628;28;20333;-46
2021/11/03 03:32:42;;;;;;;;;;;18.40;71.10;;;;;;4974819;28;19992;-44
2021/11/03 03:35:09;;;;;;;;;;;18.40;71.10;;;;;;4976461;28;19977;-44
2021/11/03 03:37:36;;;;;;;;;;;18.40;71.20;;;;;;4976469;28;19980;-43
2021/11/03 03:40:03;;;;;;;;;;;18.40;71.20;;;;;;4976438;28;20300;-43
2021/11/03 03:42:30;;;;;;;;;;;18.40;71.20;;;;;;4975812;28;20013;-44
2021/11/03 03:44:57;;;;;;;;;;;18.40;71.10;;;;;;4975772;28;19926;-44
2021/11/03 03:47:24;;;;;;;;;;;18.40;71.10;;;;;;4989527;28;19992;-44
2021/11/03 03:49:51;;;;;;;;;;;18.40;71.10;;;;;;4975968;28;19926;-50
2021/11/03 03:52:18;;;;;;;;;;;18.40;71.10;;;;;;4976121;28;19933;-44
2021/11/03 03:54:45;;;;;;;;;;;18.40;71.10;;;;;;4975573;28;19933;-44
2021/11/03 03:57:12;;;;;;;;;;;18.40;71.20;;;;;;4975720;28;19985;-44
2021/11/03 03:59:39;;;;;;;;;;;18.40;71.20;;;;;;4975796;28;19973;-51
2021/11/03 04:02:06;;;;;;;;;;;18.40;71.20;;;;;;4975293;28;19933;-47
2021/11/03 04:04:33;;;;;;;;;;;18.40;71.20;;;;;;4956655;28;19927;-51
2021/11/03 04:07:00;;;;;;;;;;;18.40;71.20;;;;;;4955643;28;20449;-51
2021/11/03 04:09:27;;;;;;;;;;;18.40;71.20;;;;;;4956507;28;19926;-51
2021/11/03 04:11:54;;;;;;;;;;;18.40;71.20;;;;;;4956310;28;19930;-49
2021/11/03 04:14:21;;;;;;;;;;;18.40;71.20;;;;;;4956536;28;19926;-49
2021/11/03 04:16:49;;;;;;;;;;;18.40;71.20;;;;;;4956147;28;19980;-44
2021/11/03 04:19:16;;;;;;;;;;;18.40;71.10;;;;;;4970634;28;19926;-44
2021/11/03 04:21:43;;;;;;;;;;;18.40;71.10;;;;;;4975726;28;20293;-44
2021/11/03 04:24:19;;;;;;;;;;;18.40;71.20;;;;;;4975325;28;19973;-44
2021/11/03 04:26:47;;;;;;;;;;;18.40;71.20;;;;;;4975352;28;19965;-44
2021/11/03 04:29:16;;;;;;;;;;;18.40;71.20;;;;;;4975326;28;19981;-44
2021/11/03 04:31:43;;;;;;;;;;;18.40;71.30;;;;;;4975562;28;19926;-44
2021/11/03 04:34:10;;;;;;;;;;;18.40;71.20;;;;;;4974077;28;19926;-44
2021/11/03 04:36:37;;;;;;;;;;;18.40;71.20;;;;;;4975160;28;20393;-44
2021/11/03 04:39:05;;;;;;;;;;;18.40;71.20;;;;;;4975149;28;20016;-44
2021/11/03 04:41:32;;;;;;;;;;;18.40;71.20;;;;;;4975393;28;19934;-44
2021/11/03 04:44:00;;;;;;;;;;;18.40;71.20;;;;;;4975429;28;20001;-44
2021/11/03 04:46:27;;;;;;;;;;;18.40;71.30;;;;;;4975055;28;19976;-44
2021/11/03 04:48:54;;;;;;;;;;;18.40;71.20;;;;;;4973531;28;19926;-44
2021/11/03 04:51:21;;;;;;;;;;;18.40;71.30;;;;;;4975035;28;19973;-46
2021/11/03 04:53:49;;;;;;;;;;;18.40;71.30;;;;;;4974407;28;19926;-45
2021/11/03 04:56:19;;;;;;;;;;;18.40;71.30;;;;;;4975187;28;20337;-46
2021/11/03 04:58:47;;;;;;;;;;;18.40;71.30;;;;;;4973856;28;19981;-44
2021/11/03 05:01:15;;;;;;;;;;;18.40;71.30;;;;;;4974929;28;20004;-44
2021/11/03 05:03:43;;;;;;;;;;;18.40;71.30;;;;;;4973644;28;20278;-44
2021/11/03 05:06:11;;;;;;;;;;;18.40;71.30;;;;;;4974871;28;19957;-45
2021/11/03 05:08:38;;;;;;;;;;;18.40;71.30;;;;;;4975165;28;20005;-44
2021/11/03 05:11:05;;;;;;;;;;;18.40;71.30;;;;;;4974861;28;20425;-46
2021/11/03 05:13:32;;;;;;;;;;;18.40;71.30;;;;;;4975087;28;19973;-46
2021/11/03 05:16:01;;;;;;;;;;;18.40;71.30;;;;;;4974689;28;19927;-45
2021/11/03 05:18:28;;;;;;;;;;;18.40;71.30;;;;;;4973181;28;19926;-46
2021/11/03 05:20:55;;;;;;;;;;;18.40;71.30;;;;;;4974726;28;20013;-45
2021/11/03 05:23:25;;;;;;;;;;;18.40;71.30;;;;;;4974504;28;19930;-48
2021/11/03 05:25:52;;;;;;;;;;;18.40;71.30;;;;;;4974962;28;19926;-48
2021/11/03 05:28:20;;;;;;;;;;;18.40;71.30;;;;;;4974976;28;19926;-45
2021/11/03 05:30:47;;;;;;;;;;;18.40;71.30;;;;;;4974674;28;19954;-49
2021/11/03 05:33:14;;;;;;;;;;;18.40;71.30;;;;;;4973099;28;19926;-46
2021/11/03 05:35:41;;;;;;;;;;;18.40;71.30;;;;;;4973414;28;20394;-46
2021/11/03 05:38:08;;;;;;;;;;;18.40;71.30;;;;;;4974908;28;19926;-44
2021/11/03 05:40:35;;;;;;;;;;;18.40;71.30;;;;;;4974588;28;19977;-44
2021/11/03 05:43:02;;;;;;;;;;;18.40;71.30;;;;;;4989408;28;19927;-44
2021/11/03 05:45:29;;;;;;;;;;;18.40;71.30;;;;;;4974506;28;19926;-44
2021/11/03 05:47:56;;;;;;;;;;;18.40;71.30;;;;;;4974705;28;19929;-44
2021/11/03 05:50:25;;;;;;;;;;;18.40;71.30;;;;;;4971950;28;19934;-44
2021/11/03 05:52:52;;;;;;;;;;;18.40;71.30;;;;;;4974551;28;19951;-44
2021/11/03 05:55:20;;;;;;;;;;;18.40;71.30;;;;;;4989234;28;19926;-53
2021/11/03 05:57:51;;;;;;;;;;;18.40;71.30;;;;;;4988907;28;19930;-51
2021/11/03 06:00:22;;;;;;;;;;;18.40;71.30;;;;;;4974710;28;19981;-51
2021/11/03 06:02:49;;;;;;;;;;;18.40;71.30;;;;;;4989660;28;20274;-53
2021/11/03 06:05:16;;;;;;;;;;;18.40;71.30;;;;;;4973030;28;19926;-52
2021/11/03 06:07:58;;;;;;;;;;;18.40;71.30;;;;;;4977182;28;19985;-50
2021/11/03 06:10:27;;;;;;;;;;;18.40;71.30;;;;;;4978067;28;20341;-49
2021/11/03 06:12:55;;;;;;;;;;;18.40;71.20;;;;;;4978008;28;19988;-46
2021/11/03 06:15:23;;;;;;;;;;;18.40;71.30;;;;;;4980447;28;19926;-50
2021/11/03 06:17:50;;;;;;;;;;;18.40;71.30;;;;;;4978103;28;19930;-46
2021/11/03 06:20:17;;;;;;;;;;;18.40;71.20;;;;;;4976059;28;19961;-44
2021/11/03 06:22:44;;;;;;;;;;;18.40;71.20;;;;;;4992323;28;19969;-51
2021/11/03 06:25:12;;;;;;;;;;;18.40;71.20;;;;;;4977477;28;19969;-46
2021/11/03 06:27:39;;;;;;;;;;;18.40;71.20;;;;;;4977721;28;20017;-45
2021/11/03 06:30:07;;;;;;;;;;;18.40;71.10;;;;;;4977700;28;19930;-45
2021/11/03 06:32:35;;;;;;;;;;;18.40;71.10;;;;;;4977356;28;20014;-44
2021/11/03 06:35:03;;;;;;;;;;;18.40;71.10;;;;;;4976013;28;19977;-47
2021/11/03 06:37:30;;;;;;;;;;;18.40;71.20;;;;;;4977450;28;19926;-46
2021/11/03 06:39:57;;;;;;;;;;;18.50;71.20;;;;;;4977184;28;19981;-45
2021/11/03 06:42:24;;;;;;;;;;;18.40;71.10;;;;;;4977198;28;19977;-46
2021/11/03 06:44:51;;;;;;;;;;;18.50;71.10;;;;;;4978293;28;20247;-46
2021/11/03 06:47:19;;;;;;;;;;;18.50;71.10;;;;;;4977082;28;20377;-48
2021/11/03 06:49:50;;;;;;;;;;;18.50;71.10;;;;;;4975320;28;19954;-45
2021/11/03 06:52:17;;;;;;;;;;;18.50;71.10;;;;;;4977274;28;19926;-45
2021/11/03 06:54:45;;;;;;;;;;;18.50;71.10;;;;;;4976990;28;20301;-51
2021/11/03 06:57:12;;;;;;;;;;;18.50;71.10;;;;;;4975785;28;20341;-46
2021/11/03 06:59:41;;;;;;;;;;;18.50;71.00;;;;;;4976830;28;19977;-48
2021/11/03 07:02:09;;;;;;;;;;;18.50;71.00;;;;;;4991676;28;20345;-44
2021/11/03 07:04:37;;;;;;;;;;;18.50;70.90;;;;;;4975453;28;20353;-47
2021/11/03 07:07:04;;;;;;;;;;;18.50;70.90;;;;;;4976573;28;20012;-52
2021/11/03 07:09:31;;;;;;;;;;;18.60;71.00;;;;;;4977216;28;19926;-45
2021/11/03 07:11:58;;;;;;;;;;;18.50;70.80;;;;;;4976682;28;20020;-51
2021/11/03 07:14:25;;;;;;;;;;;18.60;70.90;;;;;;4991417;28;19965;-53
2021/11/03 07:16:52;;;;;;;;;;;18.60;70.80;;;;;;4976296;28;19926;-45
2021/11/03 07:19:19;;;;;;;;;;;18.60;70.80;;;;;;4975390;28;19926;-50
2021/11/03 07:21:47;;;;;;;;;;;18.60;70.80;;;;;;4976274;28;19976;-46
2021/11/03 07:24:14;;;;;;;;;;;18.60;70.70;;;;;;4976173;28;19943;-45
2021/11/03 07:26:44;;;;;;;;;;;18.60;70.70;;;;;;4977918;28;19998;-45
2021/11/03 07:29:11;;;;;;;;;;;18.60;70.70;;;;;;4975456;28;20366;-45
2021/11/03 07:31:38;;;;;;;;;;;18.60;70.60;;;;;;4991066;28;19930;-44
2021/11/03 07:34:05;;;;;;;;;;;18.60;70.50;;;;;;4976422;28;19927;-46
2021/11/03 07:36:33;;;;;;;;;;;18.70;70.60;;;;;;4974833;28;19980;-45
2021/11/03 07:39:00;;;;;;;;;;;18.70;70.60;;;;;;4976074;28;19926;-44
2021/11/03 07:41:32;;;;;;;;;;;18.70;70.50;;;;;;4976058;28;19926;-53
2021/11/03 07:43:59;;;;;;;;;;;18.70;70.50;;;;;;4975997;28;20021;-47
2021/11/03 07:46:26;;;;;;;;;;;18.70;70.50;;;;;;4975947;28;19957;-50
2021/11/03 07:48:53;;;;;;;;;;;18.70;70.50;;;;;;4975928;28;19937;-51
2021/11/03 07:51:21;;;;;;;;;;;18.70;70.50;;;;;;4974627;28;19926;-48
2021/11/03 07:53:49;;;;;;;;;;;18.70;70.50;;;;;;4975528;28;19926;-45
2021/11/03 07:56:20;;;;;;;;;;;18.70;70.40;;;;;;4976094;28;19926;-46
2021/11/03 07:58:49;;;;;;;;;;;18.70;70.40;;;;;;4975822;28;20389;-45
2021/11/03 08:01:16;;;;;;;;;;;18.70;70.30;;;;;;4990879;28;19927;-43
2021/11/03 08:03:43;;;;;;;;;;;18.70;70.20;;;;;;4975607;28;19989;-46
2021/11/03 08:06:12;;;;;;;;;;;18.70;70.20;;;;;;4973873;28;19926;-45
2021/11/03 08:08:44;;;;;;;;;;;18.80;70.20;;;;;;4975639;28;19930;-47
2021/11/03 08:11:12;;;;;;;;;;;18.80;70.30;;;;;;4990742;28;19926;-45
2021/11/03 08:13:39;;;;;;;;;;;18.80;70.20;;;;;;4975519;28;19977;-46
2021/11/03 08:16:06;;;;;;;;;;;18.80;70.10;;;;;;4975290;28;19926;-45
2021/11/03 08:18:36;;;;;;;;;;;18.80;70.10;;;;;;4975389;28;19930;-45
2021/11/03 08:21:04;;;;;;;;;;;18.80;70.00;;;;;;4965569;28;19930;-48
2021/11/03 08:23:32;;;;;;;;;;;18.80;70.00;;;;;;4955793;28;20021;-45
2021/11/03 08:25:59;;;;;;;;;;;18.90;70.00;;;;;;4956204;28;20343;-47
2021/11/03 08:28:26;;;;;;;;;;;18.90;69.90;;;;;;4955812;28;19934;-47
2021/11/03 08:30:54;;;;;;;;;;;18.90;69.80;;;;;;4955629;28;19981;-45
2021/11/03 08:33:23;;;;;;;;;;;18.90;69.80;;;;;;4956245;28;19997;-46
2021/11/03 08:35:53;;;;;;;;;;;18.90;69.70;;;;;;4961129;28;19935;-48
2021/11/03 08:38:37;;;;;;;;;;;18.90;69.70;;;;;;4975456;28;20025;-48
2021/11/03 08:41:04;;;;;;;;;;;18.90;69.70;;;;;;4975065;28;20389;-45
2021/11/03 08:43:34;;;;;;;;;;;18.90;69.60;;;;;;4975038;28;19926;-45
2021/11/03 08:46:01;;;;;;;;;;;18.90;69.70;;;;;;4975335;28;20337;-50
2021/11/03 08:48:29;;;;;;;;;;;18.90;69.60;;;;;;4975039;28;20405;-45
2021/11/03 08:50:56;;;;;;;;;;;18.90;69.60;;;;;;4973544;28;19930;-47
2021/11/03 08:53:25;;;;;;;;;;;18.90;69.70;;;;;;4989513;28;19934;-46
2021/11/03 08:55:53;;;;;;;;;;;18.90;69.70;;;;;;4974963;28;19926;-45
2021/11/03 08:58:21;;;;;;;;;;;18.90;69.70;;;;;;4975182;28;20345;-47
2021/11/03 09:00:50;;;;;;;;;;;18.90;69.70;;;;;;4974863;28;19926;-48
2021/11/03 09:03:17;;;;;;;;;;;18.90;69.70;;;;;;4975079;28;19926;-45
2021/11/03 09:05:44;;;;;;;;;;;18.90;69.80;;;;;;4973454;28;19934;-47
2021/11/03 09:08:16;;;;;;;;;;;18.90;69.80;;;;;;4975924;28;19926;-51
2021/11/03 09:10:46;;;;;;;;;;;18.90;69.80;;;;;;4974989;28;19958;-44
2021/11/03 09:13:15;;;;;;;;;;;18.90;69.90;;;;;;4974810;28;20410;-45
2021/11/03 09:15:42;;;;;;;;;;;18.90;70.00;;;;;;4975045;28;19977;-46
2021/11/03 09:18:11;;;;;;;;;;;18.90;70.10;;;;;;4974653;28;20326;-45
2021/11/03 09:20:39;;;;;;;;;;;18.90;70.00;;;;;;4972915;28;19926;-47
2021/11/03 09:23:07;;;;;;;;;;;18.90;70.00;;;;;;4974430;28;19977;-45
2021/11/03 09:25:34;;;;;;;;;;;18.90;70.10;;;;;;4974891;28;20297;-45
2021/11/03 09:28:01;;;;;;;;;;;18.90;70.10;;;;;;4973714;28;20060;-44
2021/11/03 09:30:29;;;;;;;;;;;18.90;70.10;;;;;;4974893;28;20020;-51
2021/11/03 09:32:58;;;;;;;;;;;18.90;70.10;;;;;;4974825;28;19965;-50
2021/11/03 09:35:26;;;;;;;;;;;18.90;70.10;;;;;;4974876;28;19927;-49
2021/11/03 09:37:55;;;;;;;;;;;18.90;70.20;;;;;;4956229;28;19930;-45
2021/11/03 09:40:34;;;;;;;;;;;18.80;70.10;;;;;;4955176;28;19926;-45
2021/11/03 09:43:03;;;;;;;;;;;18.90;70.10;;;;;;4958978;28;19927;-45
2021/11/03 09:45:33;;;;;;;;;;;18.90;70.20;;;;;;4959220;28;20378;-46
2021/11/03 09:48:19;;;;;;;;;;;18.80;70.00;;;;;;4959731;28;20297;-45
2021/11/03 09:50:48;;;;;;;;;;;18.90;70.20;;;;;;4959114;28;19977;-45
2021/11/03 09:53:27;;;;;;;;;;;18.90;70.20;;;;;;4977135;28;19992;-45
2021/11/03 09:55:55;;;;;;;;;;;18.90;70.20;;;;;;4978337;28;20294;-45
2021/11/03 09:58:28;;;;;;;;;;;18.90;70.10;;;;;;4978769;28;19926;-46
2021/11/03 10:01:04;;;;;;;;;;;18.90;70.10;;;;;;4978004;28;19926;-45
2021/11/03 10:03:40;;;;;;;;;;;18.90;70.10;;;;;;4978137;28;19973;-49
2021/11/03 10:06:16;;;;;;;;;;;18.90;70.10;;;;;;4976679;28;19954;-46
2021/11/03 10:08:45;;;;;;;;;;;18.90;70.10;;;;;;4958796;28;20267;-50
2021/11/03 10:11:31;;;;;;;;;;;18.90;70.00;;;;;;4958694;28;19981;-46
2021/11/03 10:13:59;;;;;;;;;;;18.90;70.70;;;;;;4958673;28;19974;-45
2021/11/03 10:16:35;;;;;;;;;;;18.90;70.00;;;;;;4958619;28;20378;-45
2021/11/03 10:19:05;;;;;;;;;;;18.90;70.00;;;;;;4973094;28;19938;-47
2021/11/03 10:21:35;;;;;;;;;;;18.90;70.00;;;;;;4959817;28;20436;-47
2021/11/03 10:24:05;;;;;;;;;;;18.90;69.90;;;;;;4977698;28;20365;-47
2021/11/03 10:26:55;;;;;;;;;;;18.90;69.90;;;;;;4977489;28;20017;-47
2021/11/03 10:29:34;;;;;;;;;;;18.90;69.90;;;;;;4977031;28;20302;-48
2021/11/03 10:32:00;;;;;;;;;;;18.90;69.90;;;;;;4976258;28;19926;-47
2021/11/03 10:34:27;;;;;;;;;;;18.90;69.90;;;;;;4977689;28;19926;-45
2021/11/03 10:37:11;;;;;;;;;;;18.90;69.90;;;;;;4975812;28;20338;-44
2021/11/03 10:39:41;;;;;;;;;;;18.90;69.90;;;;;;4977535;28;19926;-45
2021/11/03 10:42:22;;;;;;;;;;;18.90;69.90;;;;;;4977010;28;19926;-44
2021/11/03 10:45:09;;;;;;;;;;;18.90;69.90;;;;;;4976289;28;19943;-44
2021/11/03 10:47:36;;;;;;;;;;;18.90;69.80;;;;;;4977378;28;20021;-43
2021/11/03 10:50:15;;;;;;;;;;;18.90;69.90;;;;;;4976279;28;19930;-44
2021/11/03 10:52:59;;;;;;;;;;;18.90;70.00;;;;;;4975036;28;19969;-45
2021/11/03 10:55:26;;;;;;;;;;;18.90;69.90;;;;;;4976082;28;19988;-48
2021/11/03 10:58:02;;;;;;;;;;;18.90;69.90;;;;;;4976838;28;19985;-49
2021/11/03 11:00:31;;;;;;;;;;;18.90;70.00;;;;;;4977052;28;19973;-46
2021/11/03 11:03:01;;;;;;;;;;;18.90;70.00;;;;;;4976085;28;19926;-44
2021/11/03 11:05:30;;;;;;;;;;;18.90;69.90;;;;;;4976509;28;19977;-49
2021/11/03 11:08:06;;;;;;;;;;;18.90;69.90;;;;;;4974999;28;20386;-50
2021/11/03 11:10:41;;;;;;;;;;;18.90;69.90;;;;;;4977252;28;19977;-45
2021/11/03 11:13:21;;;;;;;;;;;18.90;70.00;;;;;;4976773;28;19926;-45
2021/11/03 11:15:52;;;;;;;;;;;18.90;69.80;;;;;;4974585;28;19926;-44
2021/11/03 11:18:40;;;;;;;;;;;18.90;69.70;;;;;;4976648;28;19926;-45
2021/11/03 11:21:14;;;;;;;;;;;18.90;69.60;;;;;;4955134;29;20386;-44
2021/11/03 11:23:49;;;;;;;;;;;18.90;69.60;;;;;;4953369;29;19933;-46
2021/11/03 11:26:23;;;;;;;;;;;18.90;69.50;;;;;;4955239;29;19974;-45
2021/11/03 11:28:50;;;;;;;;;;;19.00;69.50;;;;;;4955448;29;20400;-47
2021/11/03 11:31:28;;;;;;;;;;;19.00;69.50;;;;;;4954916;29;19927;-44
2021/11/03 11:33:59;;;;;;;;;;;19.00;69.50;;;;;;4954743;29;19977;-46
2021/11/03 11:36:37;;;;;;;;;;;19.00;69.40;;;;;;4954908;29;19970;-45
2021/11/03 11:39:24;;;;;;;;;;;19.00;69.40;;;;;;4953343;29;19931;-46
2021/11/03 11:41:51;;;;;;;;;;;19.00;69.40;;;;;;4954813;29;19927;-45
2021/11/03 11:44:23;;;;;;;;;;;19.00;69.30;;;;;;4954756;29;19930;-48
2021/11/03 11:46:50;;;;;;;;;;;19.00;69.20;;;;;;4954741;29;19927;-45
2021/11/03 11:49:26;;;;;;;;;;;19.00;69.20;;;;;;4954662;29;20291;-46
2021/11/03 11:51:56;;;;;;;;;;;19.10;69.20;;;;;;4954701;29;19961;-46
2021/11/03 11:54:27;;;;;;;;;;;19.10;69.20;;;;;;4952851;29;19934;-46
2021/11/03 11:57:06;;;;;;;;;;;19.10;69.20;;;;;;4954569;29;20414;-45
2021/11/03 11:59:51;;;;;;;;;;;19.10;69.20;;;;;;4956529;28;19927;-45
2021/11/03 12:02:21;;;;;;;;;;;19.10;69.20;;;;;;4956874;28;19933;-52
2021/11/03 12:04:48;;;;;;;;;;;19.10;69.10;;;;;;4956146;28;19926;-47
2021/11/03 12:07:25;;;;;;;;;;;19.10;69.00;;;;;;4956444;28;19926;-49
2021/11/03 12:09:57;;;;;;;;;;;19.10;69.00;;;;;;4979240;28;19926;-50
2021/11/03 12:12:24;;;;;;;;;;;19.10;68.90;;;;;;4982795;28;20412;-52
2021/11/03 12:14:52;;;;;;;;;;;19.10;68.90;;;;;;4977117;28;20381;-50
2021/11/03 12:17:33;;;;;;;;;;;19.10;68.80;;;;;;4975973;28;19930;-52
2021/11/03 12:20:02;;;;;;;;;;;19.20;68.90;;;;;;4976128;28;20016;-47
2021/11/03 12:22:29;;;;;;;;;;;19.10;68.80;;;;;;4974804;28;19926;-47
2021/11/03 12:25:14;;;;;;;;;;;19.10;68.60;;;;;;4974659;28;19996;-47
2021/11/03 12:27:41;;;;;;;;;;;19.20;68.80;;;;;;4975849;28;19926;-49
2021/11/03 12:30:08;;;;;;;;;;;19.20;68.70;;;;;;4974378;28;19926;-51
2021/11/03 12:32:54;;;;;;;;;;;19.10;68.70;;;;;;4975594;28;19930;-49
2021/11/03 12:35:23;;;;;;;;;;;19.10;68.70;;;;;;4975571;28;19932;-53
2021/11/03 12:37:52;;;;;;;;;;;19.10;68.70;;;;;;4989349;28;19926;-50
2021/11/03 12:40:23;;;;;;;;;;;19.10;68.70;;;;;;4974669;28;19926;-47
2021/11/03 12:43:01;;;;;;;;;;;19.10;68.70;;;;;;4975855;28;19965;-47
2021/11/03 12:45:34;;;;;;;;;;;19.10;68.70;;;;;;4975632;28;20349;-53
2021/11/03 12:48:02;;;;;;;;;;;19.10;68.70;;;;;;4975698;28;19930;-50
2021/11/03 12:50:34;;;;;;;;;;;19.10;68.70;;;;;;4975460;28;19926;-49
2021/11/03 12:53:20;;;;;;;;;;;19.10;68.70;;;;;;4974593;28;20433;-49
2021/11/03 12:55:49;;;;;;;;;;;19.10;68.80;;;;;;4974250;28;20293;-48
2021/11/03 12:58:26;;;;;;;;;;;19.10;68.80;;;;;;4975491;28;19981;-50
2021/11/03 13:00:53;;;;;;;;;;;19.10;68.80;;;;;;4989959;28;19930;-50
2021/11/03 13:03:28;;;;;;;;;;;19.10;68.80;;;;;;4975530;28;19926;-45
2021/11/03 13:05:57;;;;;;;;;;;19.10;68.80;;;;;;4974910;28;19926;-44
2021/11/03 13:08:24;;;;;;;;;;;19.10;68.80;;;;;;4974123;28;19977;-45
2021/11/03 13:11:05;;;;;;;;;;;19.10;68.70;;;;;;4973778;28;19926;-44
2021/11/03 13:13:34;;;;;;;;;;;19.10;68.70;;;;;;4975667;28;19926;-44
2021/11/03 13:16:06;;;;;;;;;;;19.10;68.70;;;;;;4976957;28;19977;-44
2021/11/03 13:18:37;;;;;;;;;;;19.10;68.70;;;;;;4979053;28;20029;-44
2021/11/03 13:21:22;;;;;;;;;;;19.10;68.70;;;;;;4979051;28;19930;-44
2021/11/03 13:23:50;;;;;;;;;;;19.10;68.70;;;;;;4977484;28;20378;-49
2021/11/03 13:26:23;;;;;;;;;;;19.10;68.80;;;;;;4978502;28;19926;-45
2021/11/03 13:28:51;;;;;;;;;;;19.10;68.70;;;;;;4978888;28;20337;-45
2021/11/03 13:31:26;;;;;;;;;;;19.10;68.70;;;;;;4978559;28;20024;-44
2021/11/03 13:34:18;;;;;;;;;;;19.10;68.80;;;;;;4978589;28;19930;-44
2021/11/03 13:36:59;;;;;;;;;;;19.10;68.80;;;;;;4978153;28;20451;-46
2021/11/03 13:39:34;;;;;;;;;;;19.10;68.70;;;;;;4973872;28;20404;-45
2021/11/03 13:42:19;;;;;;;;;;;19.10;69.40;;;;;;4959080;28;19973;-44
2021/11/03 13:44:55;;;;;;;;;;;19.10;68.70;;;;;;4959066;28;19926;-45
2021/11/03 13:47:24;;;;;;;;;;;19.10;68.70;;;;;;4959312;28;19927;-44
2021/11/03 13:50:10;;;;;;;;;;;19.10;68.70;;;;;;4958907;28;19958;-52
2021/11/03 13:52:37;;;;;;;;;;;19.10;68.80;;;;;;4958790;28;19926;-50
2021/11/03 13:55:14;;;;;;;;;;;19.10;68.80;;;;;;4970098;28;19926;-49
2021/11/03 13:57:41;;;;;;;;;;;19.10;68.70;;;;;;4976879;28;19926;-50
2021/11/03 14:00:20;;;;;;;;;;;19.10;68.80;;;;;;4978058;28;19977;-50
2021/11/03 14:02:47;;;;;;;;;;;19.10;68.80;;;;;;4978293;28;19930;-51
2021/11/03 14:05:34;;;;;;;;;;;19.10;68.90;;;;;;4978252;28;19992;-51
2021/11/03 14:08:03;;;;;;;;;;;19.10;68.90;;;;;;4977426;28;19981;-46
2021/11/03 14:10:31;;;;;;;;;;;19.10;68.90;;;;;;4982969;28;19926;-49
2021/11/03 14:12:58;;;;;;;;;;;19.00;68.80;;;;;;4958819;28;19934;-47
2021/11/03 14:15:25;;;;;;;;;;;19.00;68.80;;;;;;4958753;28;20020;-47
2021/11/03 14:17:52;;;;;;;;;;;19.10;69.00;;;;;;4958581;28;19974;-46
2021/11/03 14:20:35;;;;;;;;;;;19.00;68.90;;;;;;4958670;28;19934;-49
2021/11/03 14:23:03;;;;;;;;;;;19.00;69.00;;;;;;4958145;28;19926;-47
2021/11/03 14:25:31;;;;;;;;;;;19.00;69.00;;;;;;4970715;28;19980;-45
2021/11/03 14:27:59;;;;;;;;;;;19.00;69.00;;;;;;4977043;28;20294;-48
2021/11/03 14:30:32;;;;;;;;;;;19.00;69.00;;;;;;4977834;28;19965;-47